Time;durP1;ratioP1;P1;durP2;ratioP2;P2;SDS_P1;SDS_P2;PMS_P1;PMS_P2;Temp;Humidity;BMP_temperature;BMP_pressure;BME280_temperature;BME280_humidity;BME280_pressure;Samples;Min_cycle;Max_cycle;Signal;HPM_P1;HPM_P2
2022/05/27 00:02:20;;;;;;;12.57;3.20;;;14.80;99.90;;;;;;4987115;28;20216;-76
2022/05/27 00:04:47;;;;;;;11.87;3.30;;;14.80;99.90;;;;;;4989635;28;20208;-77
2022/05/27 00:07:14;;;;;;;11.50;3.50;;;14.80;99.90;;;;;;4988327;28;20216;-76
2022/05/27 00:09:40;;;;;;;14.10;3.20;;;14.80;99.90;;;;;;4997758;28;20236;-77
2022/05/27 00:12:08;;;;;;;13.20;3.77;;;14.80;99.90;;;;;;4993497;28;20212;-80
2022/05/27 00:14:35;;;;;;;15.50;5.50;;;14.80;99.90;;;;;;4983385;28;20520;-78
2022/05/27 00:17:03;;;;;;;11.33;4.07;;;14.80;99.90;;;;;;4977282;28;20201;-77
2022/05/27 00:19:30;;;;;;;10.73;4.53;;;14.80;99.90;;;;;;4971876;28;20201;-77
2022/05/27 00:21:57;;;;;;;15.77;5.00;;;14.90;99.90;;;;;;4975263;28;20219;-81
2022/05/27 00:24:24;;;;;;;18.67;5.27;;;14.90;99.90;;;;;;4986579;28;20269;-78
2022/05/27 00:26:51;;;;;;;9.57;3.83;;;14.90;99.90;;;;;;4987796;28;20228;-79
2022/05/27 00:29:17;;;;;;;10.63;3.23;;;14.90;99.90;;;;;;4989658;28;20215;-79
2022/05/27 00:31:44;;;;;;;7.00;2.53;;;14.90;99.90;;;;;;4985918;28;20231;-77
2022/05/27 00:34:14;;;;;;;6.33;2.93;;;14.90;99.90;;;;;;4985035;28;20238;-77
2022/05/27 00:36:41;;;;;;;8.37;2.90;;;14.90;99.90;;;;;;4984796;28;20208;-78
2022/05/27 00:39:08;;;;;;;13.60;3.50;;;14.90;99.90;;;;;;4984355;28;20215;-77
2022/05/27 00:41:34;;;;;;;8.87;2.43;;;15.00;99.90;;;;;;4985541;28;20212;-77
2022/05/27 00:44:01;;;;;;;10.77;3.07;;;14.90;99.90;;;;;;4987658;28;20208;-78
2022/05/27 00:46:31;;;;;;;12.80;3.40;;;14.90;99.90;;;;;;4988718;28;20318;-77
2022/05/27 00:49:04;;;;;;;12.50;3.60;;;14.90;99.90;;;;;;4989363;28;20200;-77
2022/05/27 00:51:35;;;;;;;14.67;4.03;;;14.90;99.90;;;;;;4989032;28;20204;-78
2022/05/27 00:54:08;;;;;;;13.40;3.10;;;14.90;99.90;;;;;;4987298;28;20210;-78
2022/05/27 00:56:40;;;;;;;12.53;3.80;;;14.90;99.90;;;;;;4968999;28;20588;-80
2022/05/27 00:59:13;;;;;;;8.90;3.17;;;14.90;99.90;;;;;;4969194;28;20247;-77
2022/05/27 01:01:40;;;;;;;15.23;3.40;;;14.90;99.90;;;;;;4969676;28;20672;-78
2022/05/27 01:04:09;;;;;;;10.67;3.70;;;14.90;99.90;;;;;;4968520;28;20288;-78
2022/05/27 01:06:37;;;;;;;8.57;2.60;;;14.90;99.90;;;;;;4968999;28;20895;-76
2022/05/27 01:09:06;;;;;;;6.83;2.60;;;14.90;99.90;;;;;;4969591;28;20770;-79
2022/05/27 01:11:45;;;;;;;10.37;2.60;;;14.90;99.90;;;;;;4969058;28;20426;-79
2022/05/27 01:14:21;;;;;;;12.33;3.27;;;14.90;99.90;;;;;;4968598;28;20188;-77
2022/05/27 01:16:58;;;;;;;16.07;3.07;;;14.90;99.90;;;;;;4968714;28;20208;-78
2022/05/27 01:22:55;;;;;;;7.67;3.00;;;14.90;99.90;;;;;;4946449;28;20235;-78
2022/05/27 01:25:55;;;;;;;15.47;3.43;;;14.90;99.90;;;;;;4969164;28;20228;-77
2022/05/27 01:28:38;;;;;;;12.83;3.33;;;14.90;99.90;;;;;;4968791;28;20219;-78
2022/05/27 01:31:14;;;;;;;16.37;3.43;;;14.90;99.90;;;;;;4968817;28;20204;-77
2022/05/27 01:33:45;;;;;;;11.67;2.90;;;14.90;99.90;;;;;;4979625;28;20211;-78
2022/05/27 01:36:22;;;;;;;14.33;3.97;;;14.90;99.90;;;;;;4987875;28;20211;-79
2022/05/27 01:39:00;;;;;;;9.03;3.47;;;14.90;99.90;;;;;;4987523;28;20298;-78
2022/05/27 01:41:38;;;;;;;13.53;3.70;;;14.90;99.90;;;;;;4988547;28;20204;-78
2022/05/27 01:44:11;;;;;;;12.33;3.60;;;14.90;99.90;;;;;;4977731;28;20208;-77
2022/05/27 01:46:43;;;;;;;13.67;3.67;;;14.90;99.90;;;;;;4984446;28;20234;-77
2022/05/27 01:49:19;;;;;;;12.50;3.70;;;14.80;99.90;;;;;;4978146;28;20224;-79
2022/05/27 01:51:50;;;;;;;9.20;3.17;;;14.80;99.90;;;;;;4968130;28;20231;-78
2022/05/27 01:54:20;;;;;;;8.17;3.10;;;14.80;99.90;;;;;;4967664;28;20204;-77
2022/05/27 01:56:52;;;;;;;7.80;2.47;;;14.80;99.90;;;;;;4981598;28;20204;-78
2022/05/27 01:59:24;;;;;;;8.60;3.47;;;14.80;99.90;;;;;;4987380;28;20767;-77
2022/05/27 02:01:57;;;;;;;12.03;4.20;;;14.80;99.90;;;;;;4986857;28;20200;-78
2022/05/27 02:04:32;;;;;;;11.17;3.67;;;14.80;99.90;;;;;;4986825;28;20668;-77
2022/05/27 02:07:03;;;;;;;11.63;3.33;;;14.80;99.90;;;;;;4967767;28;20244;-78
2022/05/27 02:09:34;;;;;;;12.30;3.50;;;14.80;99.90;;;;;;4967706;28;20201;-78
2022/05/27 02:12:05;;;;;;;12.73;3.03;;;14.80;99.90;;;;;;4966709;28;20196;-78
2022/05/27 02:14:39;;;;;;;13.20;2.53;;;14.80;99.90;;;;;;4974835;28;20211;-78
2022/05/27 02:17:14;;;;;;;7.90;2.53;;;14.80;99.90;;;;;;4986781;28;20195;-77
2022/05/27 02:19:49;;;;;;;9.87;2.50;;;14.80;99.90;;;;;;4985257;28;20342;-77
2022/05/27 02:22:21;;;;;;;12.63;2.97;;;14.80;99.90;;;;;;4984945;28;20222;-77
2022/05/27 02:24:54;;;;;;;9.50;2.83;;;14.80;99.90;;;;;;4985292;28;20575;-76
2022/05/27 02:27:26;;;;;;;8.23;2.83;;;14.80;99.90;;;;;;4985882;28;20236;-77
2022/05/27 02:29:57;;;;;;;9.40;3.13;;;14.80;99.90;;;;;;4986525;28;20215;-76
2022/05/27 02:32:29;;;;;;;9.50;2.97;;;14.80;99.90;;;;;;4987094;28;20223;-77
2022/05/27 02:35:08;;;;;;;12.53;3.20;;;14.80;99.90;;;;;;4967670;28;20565;-77
2022/05/27 02:37:37;;;;;;;9.10;3.67;;;14.80;99.90;;;;;;4967871;28;20201;-78
2022/05/27 02:40:08;;;;;;;7.77;2.70;;;14.80;99.90;;;;;;4967079;28;20211;-78
2022/05/27 02:42:39;;;;;;;11.83;3.17;;;14.80;99.90;;;;;;4978240;28;20210;-81
2022/05/27 02:45:17;;;;;;;10.67;3.00;;;14.80;99.90;;;;;;4986100;28;20212;-77
2022/05/27 02:47:53;;;;;;;7.47;3.07;;;14.70;99.90;;;;;;4986508;28;20223;-78
2022/05/27 02:50:28;;;;;;;13.13;2.80;;;14.70;99.90;;;;;;4986248;28;20196;-78
2022/05/27 02:53:05;;;;;;;10.73;2.87;;;14.70;99.90;;;;;;4986395;28;20287;-81
2022/05/27 02:55:39;;;;;;;7.73;2.30;;;14.70;99.90;;;;;;4986533;28;20755;-77
2022/05/27 02:58:05;;;;;;;8.73;2.67;;;14.70;99.90;;;;;;4986019;28;20193;-80
2022/05/27 03:00:35;;;;;;;6.87;1.93;;;14.60;99.90;;;;;;4986419;28;20207;-77
2022/05/27 03:03:04;;;;;;;9.50;2.50;;;14.60;99.90;;;;;;4980234;28;20208;-77
2022/05/27 03:05:36;;;;;;;7.63;2.67;;;14.60;99.90;;;;;;4964918;28;20746;-78
2022/05/27 03:08:16;;;;;;;5.77;2.63;;;14.60;99.90;;;;;;4966692;28;20228;-78
2022/05/27 03:11:01;;;;;;;6.43;2.80;;;14.60;99.90;;;;;;4966375;28;20284;-76
2022/05/27 03:13:57;;;;;;;6.63;3.23;;;14.60;99.90;;;;;;4966280;28;20252;-76
2022/05/27 03:16:30;;;;;;;7.80;2.63;;;14.60;99.90;;;;;;4985192;28;20212;-78
2022/05/27 03:19:24;;;;;;;11.30;3.93;;;14.60;99.90;;;;;;4974741;28;20223;-76
2022/05/27 03:21:58;;;;;;;7.20;2.60;;;14.60;99.90;;;;;;4966949;28;20197;-77
2022/05/27 03:24:37;;;;;;;11.30;2.90;;;14.60;99.90;;;;;;4964917;28;20597;-77
2022/05/27 03:27:11;;;;;;;6.83;2.33;;;14.60;99.90;;;;;;4966586;28;20574;-77
2022/05/27 03:29:47;;;;;;;6.97;2.13;;;14.60;99.90;;;;;;4966414;28;20851;-77
2022/05/27 03:32:22;;;;;;;10.33;2.93;;;14.60;99.90;;;;;;4965749;28;21400;-77
2022/05/27 03:34:55;;;;;;;4.97;2.33;;;14.50;99.90;;;;;;4966435;28;20200;-78
2022/05/27 03:37:26;;;;;;;9.23;2.10;;;14.50;99.90;;;;;;4967696;28;20360;-77
2022/05/27 03:40:02;;;;;;;7.20;2.47;;;14.50;99.90;;;;;;4966836;28;20209;-78
2022/05/27 03:42:31;;;;;;;8.10;2.20;;;14.50;99.90;;;;;;4967181;28;20207;-76
2022/05/27 03:45:03;;;;;;;9.07;2.07;;;14.50;99.90;;;;;;4965873;28;20207;-76
2022/05/27 03:47:30;;;;;;;6.30;2.30;;;14.50;99.90;;;;;;4965131;28;20547;-77
2022/05/27 03:49:58;;;;;;;8.17;2.20;;;14.40;99.90;;;;;;4966362;28;20808;-77
2022/05/27 03:52:31;;;;;;;7.70;2.10;;;14.50;99.90;;;;;;4981622;28;20208;-77
2022/05/27 03:54:57;;;;;;;15.37;2.37;;;14.40;99.90;;;;;;4985483;28;20228;-77
2022/05/27 03:57:24;;;;;;;8.13;2.20;;;14.50;99.90;;;;;;4985221;28;20285;-76
2022/05/27 03:59:51;;;;;;;7.93;1.93;;;14.40;99.90;;;;;;4984003;28;20539;-80
2022/05/27 04:02:18;;;;;;;7.33;2.10;;;14.40;99.90;;;;;;4984957;28;20211;-76
2022/05/27 04:04:45;;;;;;;6.80;2.00;;;14.40;99.90;;;;;;4985373;28;20220;-76
2022/05/27 04:07:13;;;;;;;6.33;2.20;;;14.40;99.90;;;;;;4985042;28;20216;-77
2022/05/27 04:09:40;;;;;;;9.57;2.67;;;14.40;99.90;;;;;;4986022;28;20211;-80
2022/05/27 04:12:07;;;;;;;10.97;2.50;;;14.40;99.90;;;;;;4984712;28;20211;-79
2022/05/27 04:14:34;;;;;;;7.67;2.17;;;14.40;99.90;;;;;;4984732;28;21087;-76
2022/05/27 04:19:41;;;;;;;8.17;2.37;;;14.40;99.90;;;;;;4989012;28;20203;-75
2022/05/27 04:22:08;;;;;;;6.37;2.03;;;14.40;99.90;;;;;;4987087;28;20200;-77
2022/05/27 04:24:36;;;;;;;9.57;2.60;;;14.30;99.90;;;;;;4969821;28;20204;-76
2022/05/27 04:27:08;;;;;;;13.60;2.90;;;14.30;99.90;;;;;;4968945;28;20699;-78
2022/05/27 04:29:39;;;;;;;9.03;2.43;;;14.30;99.90;;;;;;4971733;28;20212;-76
2022/05/27 04:32:06;;;;;;;11.57;2.33;;;14.40;99.90;;;;;;4989188;28;20200;-76
2022/05/27 04:34:33;;;;;;;12.13;2.37;;;14.40;99.90;;;;;;4988740;28;20208;-78
2022/05/27 04:36:59;;;;;;;10.80;2.50;;;14.30;99.90;;;;;;4987100;28;20215;-75
2022/05/27 04:39:27;;;;;;;14.40;3.50;;;14.40;99.90;;;;;;4981761;28;20212;-78
2022/05/27 04:41:55;;;;;;;11.87;2.87;;;14.30;99.90;;;;;;4968801;28;20295;-78
2022/05/27 04:44:22;;;;;;;8.47;2.13;;;14.40;99.90;;;;;;4969826;28;20519;-75
2022/05/27 04:46:49;;;;;;;9.63;2.67;;;14.40;99.90;;;;;;4969733;28;20636;-75
2022/05/27 04:51:56;;;;;;;13.80;3.57;;;14.40;99.90;;;;;;4968645;28;20228;-76
2022/05/27 04:54:23;;;;;;;13.80;2.93;;;14.40;99.90;;;;;;4982960;28;20212;-75
2022/05/27 04:56:50;;;;;;;12.70;3.00;;;14.40;99.90;;;;;;4987353;28;20205;-77
2022/05/27 04:59:18;;;;;;;12.77;3.03;;;14.40;99.90;;;;;;4987802;28;20607;-76
2022/05/27 05:01:45;;;;;;;9.63;2.90;;;14.50;99.90;;;;;;4986171;28;20620;-76
2022/05/27 05:04:12;;;;;;;11.23;2.77;;;14.50;99.90;;;;;;4968053;28;20213;-76
2022/05/27 05:06:39;;;;;;;10.57;2.47;;;14.50;99.90;;;;;;4968594;28;20247;-76
2022/05/27 05:09:05;;;;;;;17.97;3.20;;;14.40;99.90;;;;;;4978160;28;20208;-78
2022/05/27 05:11:33;;;;;;;12.63;3.43;;;14.40;99.90;;;;;;4987297;28;20203;-76
2022/05/27 05:14:00;;;;;;;11.30;2.97;;;14.40;99.90;;;;;;4987761;28;20203;-77
2022/05/27 05:16:28;;;;;;;13.53;3.47;;;14.40;99.90;;;;;;4987774;28;20906;-74
2022/05/27 05:18:54;;;;;;;16.90;3.27;;;14.50;99.90;;;;;;4968023;28;20229;-77
2022/05/27 05:21:21;;;;;;;12.23;3.13;;;14.60;99.90;;;;;;4968815;28;20200;-75
2022/05/27 05:23:48;;;;;;;13.33;3.40;;;14.70;99.90;;;;;;4968802;28;20205;-76
2022/05/27 05:26:15;;;;;;;16.50;5.17;;;14.90;99.90;;;;;;4967766;28;20243;-76
2022/05/27 05:28:41;;;;;;;16.83;3.37;;;15.10;99.90;;;;;;4968084;28;20235;-79
2022/05/27 05:31:11;;;;;;;12.83;3.13;;;15.20;99.90;;;;;;4968262;28;20204;-76
2022/05/27 05:33:39;;;;;;;10.80;2.93;;;15.20;99.90;;;;;;4968104;28;20201;-77
2022/05/27 05:36:06;;;;;;;9.47;3.40;;;15.30;99.90;;;;;;4968836;28;20267;-76
2022/05/27 05:38:32;;;;;;;10.83;2.90;;;15.30;99.90;;;;;;4967642;28;20207;-75
2022/05/27 05:40:59;;;;;;;12.57;2.93;;;15.30;99.90;;;;;;4968372;28;20201;-76
2022/05/27 05:43:26;;;;;;;15.53;3.83;;;15.20;99.90;;;;;;4969022;28;20208;-76
2022/05/27 05:45:53;;;;;;;10.77;3.57;;;15.20;99.90;;;;;;4968248;28;20528;-76
2022/05/27 05:48:19;;;;;;;12.13;2.83;;;15.10;99.90;;;;;;4976375;28;20223;-75
2022/05/27 05:50:47;;;;;;;12.80;3.40;;;15.10;99.90;;;;;;4988238;28;20207;-76
2022/05/27 05:53:14;;;;;;;10.10;3.40;;;15.00;99.90;;;;;;4986789;28;20215;-75
2022/05/27 05:55:41;;;;;;;13.03;3.00;;;15.00;99.90;;;;;;4986805;28;20208;-78
2022/05/27 05:58:08;;;;;;;12.10;3.23;;;15.00;99.90;;;;;;4968999;28;20204;-75
2022/05/27 06:00:35;;;;;;;15.23;3.80;;;14.90;99.90;;;;;;4968633;28;20204;-75
2022/05/27 06:03:01;;;;;;;15.57;4.27;;;14.90;99.90;;;;;;4968290;28;20871;-77
2022/05/27 06:05:28;;;;;;;12.93;3.20;;;15.00;99.90;;;;;;4968317;28;20319;-76
2022/05/27 06:07:57;;;;;;;9.90;2.97;;;15.00;99.90;;;;;;4967160;28;20631;-75
2022/05/27 06:10:24;;;;;;;13.20;3.37;;;15.10;99.90;;;;;;4967729;28;20205;-77
2022/05/27 06:12:51;;;;;;;18.27;3.50;;;15.20;99.90;;;;;;4967953;28;20217;-78
2022/05/27 06:15:18;;;;;;;11.63;3.20;;;15.40;99.90;;;;;;4967558;28;20207;-77
2022/05/27 06:17:45;;;;;;;13.57;3.97;;;15.50;99.90;;;;;;4967908;28;20198;-76
2022/05/27 06:20:12;;;;;;;11.73;3.37;;;15.50;99.90;;;;;;4967110;28;20208;-76
2022/05/27 06:22:38;;;;;;;10.20;3.20;;;15.50;99.90;;;;;;4986905;28;20220;-76
2022/05/27 06:25:13;;;;;;;10.37;2.93;;;15.50;99.90;;;;;;4968536;28;20525;-76
2022/05/27 06:27:40;;;;;;;16.47;3.93;;;15.40;99.90;;;;;;4972686;28;20216;-77
2022/05/27 06:35:34;;;;;;;14.60;3.50;;;15.20;99.90;;;;;;4981154;28;20263;-79
2022/05/27 06:38:00;;;;;;;12.53;3.53;;;15.30;99.90;;;;;;4979433;28;20206;-75
2022/05/27 06:40:29;;;;;;;10.60;3.37;;;15.40;99.90;;;;;;4974484;28;20259;-78
2022/05/27 06:42:55;;;;;;;11.13;3.47;;;15.60;99.90;;;;;;4976768;28;20212;-77
2022/05/27 06:45:22;;;;;;;16.27;3.73;;;15.80;99.90;;;;;;4978564;28;20216;-76
2022/05/27 06:47:49;;;;;;;14.50;3.22;;;15.80;99.90;;;;;;4967920;28;20254;-79
2022/05/27 06:50:16;;;;;;;11.75;3.30;;;16.20;99.90;;;;;;4966708;28;20204;-77
2022/05/27 06:52:43;;;;;;;12.23;3.13;;;16.60;99.90;;;;;;4967455;28;20209;-78
2022/05/27 06:55:11;;;;;;;11.00;2.88;;;17.00;99.90;;;;;;4967126;28;20208;-77
2022/05/27 06:57:40;;;;;;;14.35;3.40;;;17.30;99.90;;;;;;4985620;28;20200;-79
2022/05/27 07:00:10;;;;;;;10.93;3.50;;;17.60;99.90;;;;;;4986562;28;20211;-77
2022/05/27 07:02:37;;;;;;;13.65;3.17;;;17.60;99.90;;;;;;4987297;28;20210;-85
2022/05/27 07:05:04;;;;;;;16.92;4.72;;;17.50;99.90;;;;;;4986117;28;20240;-78
2022/05/27 07:07:32;;;;;;;12.20;3.40;;;17.40;99.90;;;;;;4977682;28;20209;-77
2022/05/27 07:09:59;;;;;;;9.63;3.25;;;17.50;99.90;;;;;;4973010;28;20208;-79
2022/05/27 07:12:26;;;;;;;18.17;3.85;;;17.70;99.90;;;;;;4986528;28;20257;-78
2022/05/27 07:14:54;;;;;;;14.65;3.67;;;18.00;99.90;;;;;;4986144;28;20223;-78
2022/05/27 07:17:21;;;;;;;15.55;3.63;;;18.30;99.90;;;;;;4986130;28;20224;-78
2022/05/27 07:19:47;;;;;;;12.07;3.15;;;18.50;99.90;;;;;;4987602;28;20254;-79
2022/05/27 07:22:14;;;;;;;13.23;3.17;;;18.40;99.90;;;;;;4979953;28;20914;-78
2022/05/27 07:24:42;;;;;;;11.07;3.58;;;18.30;99.90;;;;;;4966328;28;20235;-78
2022/05/27 07:27:08;;;;;;;13.02;3.67;;;18.30;99.90;;;;;;4966476;28;20222;-78
2022/05/27 07:29:36;;;;;;;7.93;3.00;;;18.40;99.90;;;;;;4966791;28;20247;-77
2022/05/27 07:32:05;;;;;;;12.88;3.22;;;18.40;99.90;;;;;;4984476;28;20216;-79
2022/05/27 07:34:32;;;;;;;17.33;4.07;;;18.40;99.90;;;;;;4984981;28;20323;-78
2022/05/27 07:36:59;;;;;;;16.52;3.97;;;18.50;99.90;;;;;;4984335;28;20207;-81
2022/05/27 07:39:26;;;;;;;18.65;3.92;;;18.70;99.90;;;;;;4983975;28;20208;-81
2022/05/27 07:41:53;;;;;;;11.00;3.55;;;18.60;99.90;;;;;;4984451;28;20204;-82
2022/05/27 07:44:20;;;;;;;20.23;3.92;;;18.70;99.90;;;;;;4986513;28;20524;-81
2022/05/27 07:46:47;;;;;;;12.82;3.67;;;18.70;99.90;;;;;;4986208;28;20211;-79
2022/05/27 07:49:15;;;;;;;9.93;3.03;;;18.80;99.90;;;;;;4988522;28;20239;-78
2022/05/27 07:51:41;;;;;;;13.23;3.72;;;18.80;99.90;;;;;;4989342;28;20518;-80
2022/05/27 07:54:11;;;;;;;16.95;4.80;;;18.90;99.90;;;;;;4972136;28;20204;-80
2022/05/27 07:56:39;;;;;;;15.40;3.67;;;19.00;99.90;;;;;;4972035;28;20828;-80
2022/05/27 07:59:06;;;;;;;12.93;3.03;;;19.10;99.90;;;;;;4971241;28;20220;-78
2022/05/27 08:01:32;;;;;;;14.32;3.78;;;19.10;99.90;;;;;;4972178;28;20212;-77
2022/05/27 08:03:59;;;;;;;12.90;3.47;;;19.10;99.90;;;;;;4970939;28;20209;-78
2022/05/27 08:06:27;;;;;;;15.75;4.10;;;19.30;99.90;;;;;;4975312;28;20231;-78
2022/05/27 08:08:54;;;;;;;14.23;3.20;;;19.40;99.90;;;;;;4990331;28;20725;-78
2022/05/27 08:11:21;;;;;;;12.32;3.92;;;19.30;99.90;;;;;;4973299;28;20224;-78
2022/05/27 08:13:47;;;;;;;9.43;2.92;;;19.00;99.90;;;;;;4970701;28;20271;-79
2022/05/27 08:16:14;;;;;;;15.98;3.72;;;19.00;99.90;;;;;;4970606;28;20212;-79
2022/05/27 08:18:41;;;;;;;14.65;4.13;;;19.20;99.90;;;;;;4971350;28;20216;-78
2022/05/27 08:21:08;;;;;;;15.18;4.43;;;19.40;99.90;;;;;;4970732;28;20204;-79
2022/05/27 08:23:36;;;;;;;11.65;3.63;;;19.60;99.90;;;;;;4971226;28;20212;-79
2022/05/27 08:26:03;;;;;;;8.20;3.25;;;19.40;99.90;;;;;;4970352;28;20232;-78
2022/05/27 08:28:31;;;;;;;13.85;3.03;;;19.40;99.90;;;;;;4969841;28;20315;-81
2022/05/27 08:30:59;;;;;;;13.77;3.35;;;19.40;99.90;;;;;;4971072;28;20236;-78
2022/05/27 08:38:00;;;;;;;12.20;3.45;;;19.40;99.90;;;;;;4970947;28;20212;-80
2022/05/27 08:39:03;;;;;;;11.60;3.67;;;19.40;99.90;;;;;;4970972;28;20270;-80
2022/05/27 08:41:49;;;;;;;13.68;3.83;;;19.30;99.90;;;;;;4970434;28;20212;-79
2022/05/27 08:44:31;;;;;;;11.40;3.47;;;18.90;99.90;;;;;;4970677;28;20219;-77
2022/05/27 08:47:05;;;;;;;8.93;3.22;;;18.80;99.90;;;;;;4970559;28;20197;-76
2022/05/27 08:49:35;;;;;;;15.15;4.50;;;18.60;99.90;;;;;;4970052;28;20220;-77
2022/05/27 08:52:05;;;;;;;17.65;4.15;;;18.50;99.90;;;;;;4978220;28;20203;-77
2022/05/27 08:54:40;;;;;;;15.80;4.75;;;18.40;99.90;;;;;;4985134;28;20208;-81
2022/05/27 08:59:57;;;;;;;17.33;4.28;;;18.80;99.90;;;;;;4980111;28;20199;-77
2022/05/27 09:02:30;;;;;;;13.65;4.30;;;18.80;99.90;;;;;;4989467;28;20215;-79
2022/05/27 09:05:08;;;;;;;14.63;4.75;;;18.90;99.90;;;;;;4975121;28;20680;-77
2022/05/27 09:07:43;;;;;;;12.07;3.70;;;19.10;99.90;;;;;;4970306;28;20601;-80
2022/05/27 09:10:16;;;;;;;18.08;3.78;;;18.90;99.90;;;;;;4969757;28;20235;-79
2022/05/27 09:12:48;;;;;;;16.08;4.72;;;19.10;99.90;;;;;;4971363;28;20223;-80
2022/05/27 09:15:33;;;;;;;12.05;3.45;;;19.20;99.90;;;;;;4986601;28;20212;-79
2022/05/27 09:18:07;;;;;;;11.95;4.15;;;19.20;99.90;;;;;;4970162;28;20926;-80
2022/05/27 09:20:49;;;;;;;14.68;3.65;;;19.10;99.90;;;;;;4970371;28;20208;-79
2022/05/27 09:23:37;;;;;;;9.77;4.03;;;19.30;99.90;;;;;;4969204;28;20204;-78
2022/05/27 09:26:12;;;;;;;13.25;3.53;;;19.10;99.90;;;;;;4945109;28;20703;-77
2022/05/27 09:28:51;;;;;;;16.98;4.00;;;18.70;99.90;;;;;;4989262;28;20224;-77
2022/05/27 09:31:30;;;;;;;9.60;3.20;;;18.80;99.90;;;;;;4987085;28;20218;-77
2022/05/27 09:33:57;;;;;;;14.00;4.35;;;19.10;99.90;;;;;;4987346;28;20204;-82
2022/05/27 09:36:32;;;;;;;11.60;3.45;;;18.70;99.90;;;;;;4971753;28;20894;-79
2022/05/27 09:39:02;;;;;;;9.35;3.78;;;18.70;99.90;;;;;;4967644;28;20631;-79
2022/05/27 09:41:39;;;;;;;17.55;3.42;;;18.70;99.90;;;;;;4969045;28;20871;-79
2022/05/27 09:44:16;;;;;;;12.02;2.72;;;18.90;99.90;;;;;;4968836;28;20208;-78
2022/05/27 09:46:43;;;;;;;12.00;3.40;;;19.10;99.90;;;;;;4987541;28;20500;-78
2022/05/27 09:49:10;;;;;;;11.82;2.85;;;19.40;99.90;;;;;;4989518;28;20247;-78
2022/05/27 09:51:38;;;;;;;12.63;3.35;;;19.50;99.90;;;;;;4988816;28;20595;-80
2022/05/27 09:54:19;;;;;;;10.93;2.60;;;19.40;99.90;;;;;;4975798;28;20299;-79
2022/05/27 09:56:58;;;;;;;9.77;3.17;;;19.40;99.90;;;;;;4969769;28;20215;-78
2022/05/27 09:59:27;;;;;;;12.73;3.55;;;19.40;99.90;;;;;;4969564;28;20238;-78
2022/05/27 10:02:15;;;;;;;13.25;3.10;;;19.40;99.90;;;;;;4969606;28;20223;-79
2022/05/27 10:04:54;;;;;;;12.77;3.63;;;19.20;99.90;;;;;;4969717;28;20215;-80
2022/05/27 10:07:27;;;;;;;11.27;3.25;;;19.30;99.90;;;;;;4968304;28;20212;-80
2022/05/27 10:09:54;;;;;;;11.35;2.85;;;19.50;99.90;;;;;;4972613;28;20220;-81
2022/05/27 10:12:34;;;;;;;10.40;3.00;;;19.60;99.90;;;;;;4988101;28;20207;-81
2022/05/27 10:15:01;;;;;;;8.55;2.72;;;19.50;99.90;;;;;;4987864;28;20200;-80
2022/05/27 10:17:35;;;;;;;10.98;2.83;;;19.30;99.90;;;;;;4977205;28;20849;-79
2022/05/27 10:20:18;;;;;;;11.55;3.50;;;19.20;99.90;;;;;;4971788;28;20249;-79
2022/05/27 10:22:59;;;;;;;13.73;3.38;;;19.30;99.90;;;;;;4988244;28;20293;-79
2022/05/27 10:25:34;;;;;;;10.23;2.83;;;19.60;99.90;;;;;;4988096;28;20929;-80
2022/05/27 10:28:03;;;;;;;9.88;2.72;;;19.40;99.90;;;;;;4987853;28;20639;-78
2022/05/27 10:30:32;;;;;;;7.78;2.30;;;19.30;99.90;;;;;;4988387;28;20706;-78
2022/05/27 10:33:14;;;;;;;10.82;2.88;;;19.50;99.90;;;;;;4988401;28;20210;-81
2022/05/27 10:35:41;;;;;;;8.80;2.80;;;19.50;99.90;;;;;;4981211;28;20213;-79
2022/05/27 10:38:34;;;;;;;14.02;3.70;;;19.60;99.90;;;;;;4968514;28;20236;-84
2022/05/27 10:41:05;;;;;;;11.07;3.35;;;19.30;99.90;;;;;;4983837;28;20690;-81
2022/05/27 10:44:05;;;;;;;8.68;2.92;;;19.00;99.90;;;;;;4989288;28;20207;-80
2022/05/27 10:46:36;;;;;;;14.23;3.15;;;18.70;99.90;;;;;;4988725;28;20212;-81
2022/05/27 10:49:43;;;;;;;9.73;3.20;;;18.90;99.90;;;;;;5045933;22;20547;-79
2022/05/27 10:52:20;;;;;;;9.55;3.08;;;18.80;99.90;;;;;;5066887;28;20206;-80
2022/05/27 10:55:02;;;;;;;10.95;2.75;;;18.40;99.90;;;;;;5087384;28;20213;-79
2022/05/27 11:03:34;;;;;;;6.13;2.35;;;18.30;99.90;;;;;;5067651;28;20196;-80
2022/05/27 11:06:16;;;;;;;9.70;2.58;;;18.50;99.90;;;;;;5067002;28;20221;-78
2022/05/27 11:08:51;;;;;;;11.30;2.50;;;18.40;99.90;;;;;;5085632;28;20216;-78
2022/05/27 11:11:29;;;;;;;13.88;2.88;;;18.50;99.90;;;;;;5084965;28;20257;-78
2022/05/27 11:17:03;;;;;;;13.25;3.35;;;18.50;99.90;;;;;;5085960;28;20195;-77
2022/05/27 11:19:51;;;;;;;14.02;3.80;;;18.30;99.90;;;;;;5086181;28;20193;-78
2022/05/27 11:22:28;;;;;;;9.70;2.47;;;18.00;99.90;;;;;;5086408;28;20790;-77
2022/05/27 11:25:30;;;;;;;10.70;3.13;;;17.70;99.90;;;;;;5082774;28;20198;-80
2022/05/27 11:28:23;;;;;;;9.90;2.47;;;17.70;99.90;;;;;;5062837;28;20209;-79
2022/05/27 11:31:00;;;;;;;10.68;2.95;;;17.90;99.90;;;;;;5065092;28;20347;-77
2022/05/27 11:33:38;;;;;;;16.92;3.85;;;18.20;99.90;;;;;;5066247;28;20232;-79
2022/05/27 11:36:19;;;;;;;13.20;3.80;;;18.20;99.90;;;;;;5065807;28;20969;-78
2022/05/27 11:39:18;;;;;;;12.20;3.60;;;18.00;99.90;;;;;;5066214;28;20492;-79
2022/05/27 11:41:58;;;;;;;12.65;3.28;;;17.80;99.90;;;;;;5065921;28;20238;-79
2022/05/27 11:44:34;;;;;;;11.77;3.38;;;18.00;99.90;;;;;;5065080;28;20204;-79
2022/05/27 11:47:31;;;;;;;17.73;4.25;;;18.10;99.90;;;;;;5066412;28;20385;-78
2022/05/27 11:50:10;;;;;;;16.15;3.47;;;18.00;99.90;;;;;;5065909;28;20244;-78
2022/05/27 11:52:48;;;;;;;15.82;3.92;;;17.90;99.90;;;;;;5066208;28;20220;-80
2022/05/27 11:55:40;;;;;;;9.43;3.13;;;18.10;99.90;;;;;;5066242;28;20215;-79
2022/05/27 11:58:17;;;;;;;12.90;3.58;;;18.40;99.90;;;;;;5065260;28;20201;-78
2022/05/27 12:00:49;;;;;;;13.32;3.58;;;18.50;99.90;;;;;;5065889;28;20213;-77
2022/05/27 12:03:23;;;;;;;10.73;3.30;;;18.80;99.90;;;;;;5066015;28;20212;-78
2022/05/27 12:05:54;;;;;;;12.10;3.63;;;18.80;99.90;;;;;;5066249;28;20201;-80
2022/05/27 12:08:29;;;;;;;13.30;3.40;;;18.60;99.90;;;;;;5065629;28;20197;-79
2022/05/27 12:11:02;;;;;;;10.65;3.47;;;18.30;99.90;;;;;;5066960;28;20262;-77
2022/05/27 12:13:33;;;;;;;13.88;3.17;;;18.00;99.90;;;;;;5065877;28;20593;-76
2022/05/27 12:16:03;;;;;;;13.95;3.50;;;17.70;99.90;;;;;;5066749;28;20262;-78
2022/05/27 12:18:38;;;;;;;13.38;2.70;;;17.60;99.90;;;;;;5069933;28;20440;-78
2022/05/27 12:21:11;;;;;;;8.32;2.83;;;17.70;99.90;;;;;;5085790;28;20207;-74
2022/05/27 12:23:43;;;;;;;13.73;3.17;;;17.50;99.90;;;;;;5087396;28;20205;-77
2022/05/27 12:26:10;;;;;;;9.32;3.13;;;17.30;99.90;;;;;;5085950;28;20899;-78
2022/05/27 12:28:41;;;;;;;13.02;3.20;;;17.10;99.90;;;;;;5087538;28;20830;-77
2022/05/27 12:31:10;;;;;;;16.30;4.30;;;17.00;99.90;;;;;;5087527;28;20209;-77
2022/05/27 12:33:38;;;;;;;14.77;3.17;;;17.10;99.90;;;;;;5067585;28;20209;-78
2022/05/27 12:36:09;;;;;;;9.30;2.72;;;17.40;99.90;;;;;;5080745;28;20205;-76
2022/05/27 12:38:42;;;;;;;9.98;3.05;;;17.60;99.90;;;;;;5071470;28;20216;-78
2022/05/27 12:41:12;;;;;;;13.75;3.22;;;17.70;99.90;;;;;;5069538;28;20207;-75
2022/05/27 12:43:55;;;;;;;11.10;2.85;;;17.70;99.90;;;;;;5070101;28;20209;-78
2022/05/27 12:46:33;;;;;;;9.45;2.50;;;17.80;99.90;;;;;;5069832;28;20205;-78
2022/05/27 12:49:25;;;;;;;16.08;3.30;;;17.70;99.90;;;;;;5067377;28;20241;-78
2022/05/27 12:51:54;;;;;;;13.23;3.08;;;17.60;99.90;;;;;;5068318;28;20209;-77
2022/05/27 12:54:58;;;;;;;10.40;2.53;;;17.90;99.90;;;;;;5068441;28;20557;-78
2022/05/27 13:03:49;;;;;;;9.90;2.55;;;17.60;99.90;;;;;;5068040;28;20204;-79
2022/05/27 13:06:37;;;;;;;11.15;3.20;;;17.50;99.90;;;;;;5068564;28;20216;-78
2022/05/27 13:09:08;;;;;;;11.40;2.92;;;17.40;99.90;;;;;;5067917;28;20668;-76
2022/05/27 13:11:46;;;;;;;11.35;2.60;;;17.40;99.90;;;;;;5068718;28;20205;-80
2022/05/27 13:14:24;;;;;;;12.13;2.50;;;17.40;99.90;;;;;;5068337;28;20775;-78
2022/05/27 13:17:03;;;;;;;11.00;3.03;;;17.30;99.90;;;;;;5068366;28;20295;-78
2022/05/27 13:19:36;;;;;;;10.18;2.97;;;17.20;99.90;;;;;;5069096;28;20288;-78
2022/05/27 13:22:10;;;;;;;13.32;4.13;;;17.10;99.90;;;;;;5068287;28;20212;-77
2022/05/27 13:24:39;;;;;;;13.52;3.10;;;17.10;99.90;;;;;;5069190;28;20193;-77
2022/05/27 13:27:23;;;;;;;12.25;2.65;;;17.00;99.90;;;;;;5068293;28;20228;-77
2022/05/27 13:30:01;;;;;;;12.93;3.40;;;17.10;99.90;;;;;;5068534;28;20248;-78
2022/05/27 13:32:30;;;;;;;10.45;3.05;;;17.00;99.90;;;;;;5068569;28;20205;-77
2022/05/27 13:35:00;;;;;;;10.77;2.75;;;17.00;99.90;;;;;;5067736;28;20545;-77
2022/05/27 13:37:41;;;;;;;15.05;3.63;;;16.90;99.90;;;;;;5067722;28;20201;-78
2022/05/27 13:40:12;;;;;;;8.40;3.10;;;16.90;99.90;;;;;;5067945;28;20275;-81
2022/05/27 13:42:45;;;;;;;10.15;3.13;;;16.90;99.90;;;;;;5067775;28;20609;-78